createdAt,value
2018-06-02T00:00:08.678Z,72.93
2018-06-02T00:02:36.965Z,60.00
2018-06-02T00:05:05.273Z,29.93
2018-06-02T00:07:33.530Z,28.30
2018-06-02T00:10:01.825Z,28.77
2018-06-02T00:12:30.111Z,14.13
2018-06-02T00:14:58.386Z,17.60
2018-06-02T00:17:26.594Z,26.50
2018-06-02T00:19:54.878Z,39.73
2018-06-02T00:22:23.162Z,23.83
2018-06-02T00:24:51.386Z,31.93
2018-06-02T00:27:19.625Z,36.07
2018-06-02T00:29:47.822Z,45.27
2018-06-02T00:32:16.065Z,61.23
2018-06-02T00:34:44.294Z,32.73
2018-06-02T00:37:12.601Z,48.27
2018-06-02T00:39:40.894Z,43.00
2018-06-02T00:42:09.158Z,47.57
2018-06-02T00:44:37.354Z,28.67
2018-06-02T00:47:05.653Z,26.60
2018-06-02T00:49:33.931Z,20.37
2018-06-02T00:52:02.123Z,15.03
2018-06-02T00:54:39.318Z,21.83
2018-06-02T00:57:07.602Z,18.40
2018-06-02T00:59:35.786Z,19.33
2018-06-02T01:02:04.086Z,33.67
2018-06-02T01:04:32.366Z,51.83
2018-06-02T01:07:00.661Z,60.20
2018-06-02T01:09:28.955Z,69.07
2018-06-02T01:11:57.231Z,49.40
2018-06-02T01:17:08.162Z,62.30
2018-06-02T01:19:36.432Z,68.37
2018-06-02T01:22:04.622Z,41.30
2018-06-02T01:24:32.923Z,41.43
2018-06-02T01:27:01.198Z,47.27
2018-06-02T01:29:29.386Z,51.03
2018-06-02T01:31:57.685Z,48.70
2018-06-02T01:34:25.962Z,38.43
2018-06-02T01:36:54.149Z,37.03
2018-06-02T01:39:22.350Z,29.13
2018-06-02T01:41:50.630Z,22.40
2018-06-02T01:44:18.908Z,19.70
2018-06-02T01:46:47.117Z,11.57
2018-06-02T01:49:15.382Z,10.40
2018-06-02T01:51:43.574Z,12.33
2018-06-02T01:54:12.318Z,19.20
2018-06-02T01:56:40.566Z,14.17
2018-06-02T01:59:08.857Z,12.30
2018-06-02T02:01:37.057Z,11.30
2018-06-02T02:04:05.542Z,11.13
2018-06-02T02:06:33.810Z,10.07
2018-06-02T02:09:02.024Z,11.37
2018-06-02T02:11:30.319Z,15.13
2018-06-02T02:13:58.582Z,12.53
2018-06-02T02:16:26.777Z,24.73
2018-06-02T02:18:55.122Z,23.90
2018-06-02T02:21:23.352Z,30.43
2018-06-02T02:23:51.554Z,43.17
2018-06-02T02:26:19.814Z,29.47
2018-06-02T02:28:48.015Z,30.10
2018-06-02T02:31:16.305Z,34.97
2018-06-02T02:33:44.594Z,36.00
2018-06-02T02:36:12.801Z,36.07
2018-06-02T02:38:41.086Z,39.07
2018-06-02T02:41:09.354Z,26.87
2018-06-02T02:43:37.637Z,28.97
2018-06-02T02:46:05.848Z,33.43
2018-06-02T02:48:34.134Z,34.70
2018-06-02T02:51:02.758Z,30.03
2018-06-02T02:53:31.012Z,46.43
2018-06-02T02:55:59.287Z,36.63
2018-06-02T02:58:27.475Z,39.63
2018-06-02T03:00:55.666Z,38.17
2018-06-02T03:03:23.949Z,35.00
2018-06-02T03:05:52.238Z,29.60
2018-06-02T03:08:20.443Z,41.87
2018-06-02T03:10:48.714Z,32.10
2018-06-02T03:13:16.900Z,44.10
2018-06-02T03:15:45.113Z,46.77
2018-06-02T03:18:13.378Z,47.77
2018-06-02T03:20:41.666Z,44.90
2018-06-02T03:23:09.990Z,37.70
2018-06-02T03:25:38.242Z,47.80
2018-06-02T03:28:06.457Z,32.40
2018-06-02T03:30:34.747Z,25.73
2018-06-02T03:33:02.998Z,14.60
2018-06-02T03:35:31.196Z,21.90
2018-06-02T03:37:59.401Z,18.00
2018-06-02T03:40:27.666Z,16.27
2018-06-02T03:42:55.860Z,15.10
2018-06-02T03:45:24.153Z,12.13
2018-06-02T03:47:52.459Z,13.03
2018-06-02T03:50:20.737Z,14.20
2018-06-02T03:52:48.929Z,11.83
2018-06-02T03:55:17.194Z,11.77
2018-06-02T03:57:45.388Z,13.00
2018-06-02T04:00:13.766Z,11.37
2018-06-02T04:02:41.963Z,12.23
2018-06-02T04:05:10.258Z,12.27
2018-06-02T04:07:38.603Z,12.90
2018-06-02T04:10:06.838Z,22.63
2018-06-02T04:12:35.122Z,18.83
2018-06-02T04:15:03.420Z,12.73
2018-06-02T04:17:31.691Z,11.10
2018-06-02T04:19:59.881Z,14.80
2018-06-02T04:22:28.081Z,19.87
2018-06-02T04:24:56.358Z,15.07
2018-06-02T04:27:24.541Z,19.47
2018-06-02T04:29:52.830Z,17.73
2018-06-02T04:32:21.022Z,42.17
2018-06-02T04:34:49.334Z,33.43
2018-06-02T04:37:17.737Z,45.83
2018-06-02T04:39:45.990Z,44.40
2018-06-02T04:42:14.270Z,30.50
2018-06-02T04:44:42.478Z,29.93
2018-06-02T04:47:10.751Z,30.03
2018-06-02T04:49:38.933Z,25.87
2018-06-02T04:52:07.134Z,21.10
2018-06-02T04:54:35.410Z,16.97
2018-06-02T04:57:03.665Z,12.03
2018-06-02T04:59:31.914Z,12.70
2018-06-02T05:02:00.173Z,12.93
2018-06-02T05:04:28.518Z,19.27
2018-06-02T05:06:56.658Z,11.13
2018-06-02T05:09:25.114Z,23.93
2018-06-02T05:11:54.985Z,11.27
2018-06-02T05:14:23.266Z,9.67
2018-06-02T05:16:51.534Z,12.80
2018-06-02T05:19:20.509Z,11.07
2018-06-02T05:21:48.757Z,10.60
2018-06-02T05:24:17.044Z,8.53
2018-06-02T05:26:45.306Z,10.27
2018-06-02T05:29:13.675Z,11.90
2018-06-02T05:31:41.910Z,8.10
2018-06-02T05:34:10.178Z,13.37
2018-06-02T05:36:39.076Z,8.97
2018-06-02T05:39:07.366Z,8.50
2018-06-02T05:41:35.566Z,8.33
2018-06-02T05:44:03.940Z,12.13
2018-06-02T05:46:32.138Z,20.73
2018-06-02T05:49:00.438Z,13.00
2018-06-02T05:51:28.722Z,15.20
2018-06-02T05:53:57.301Z,11.20
2018-06-02T05:56:25.514Z,13.50
2018-06-02T05:58:53.917Z,13.07
2018-06-02T06:01:22.173Z,8.07
2018-06-02T06:03:51.024Z,9.87
2018-06-02T06:06:19.314Z,9.37
2018-06-02T06:08:47.555Z,9.17
2018-06-02T06:11:16.114Z,10.00
2018-06-02T06:13:44.310Z,10.63
2018-06-02T06:16:12.522Z,11.97
2018-06-02T06:18:40.710Z,9.60
2018-06-02T06:21:08.917Z,21.13
2018-06-02T06:23:37.190Z,10.87
2018-06-02T06:26:05.512Z,9.97
2018-06-02T06:28:33.799Z,17.73
2018-06-02T06:31:02.070Z,11.13
2018-06-02T06:33:30.337Z,14.10
2018-06-02T06:35:58.550Z,10.43
2018-06-02T06:38:26.819Z,9.23
2018-06-02T06:40:55.004Z,10.10
2018-06-02T06:43:23.210Z,9.47
2018-06-02T06:45:51.483Z,10.43
2018-06-02T06:48:19.766Z,14.23
2018-06-02T06:50:47.984Z,14.03
2018-06-02T06:53:16.158Z,12.80
2018-06-02T06:55:44.452Z,9.83
2018-06-02T06:58:12.722Z,12.47
2018-06-02T07:00:41.009Z,9.90
2018-06-02T07:03:09.206Z,9.07
2018-06-02T07:05:37.497Z,13.30
2018-06-02T07:08:05.683Z,11.73
2018-06-02T07:10:33.859Z,14.73
2018-06-02T07:13:02.072Z,19.57
2018-06-02T07:15:30.250Z,12.03
2018-06-02T07:17:58.462Z,9.83
2018-06-02T07:20:27.183Z,17.93
2018-06-02T07:22:55.370Z,10.77
2018-06-02T07:25:23.553Z,12.10
2018-06-02T07:27:51.745Z,9.43
2018-06-02T07:30:19.931Z,11.77
2018-06-02T07:32:48.118Z,15.00
2018-06-02T07:35:16.354Z,9.50
2018-06-02T07:37:44.622Z,9.17
2018-06-02T07:40:12.794Z,8.70
2018-06-02T07:42:40.983Z,9.80
2018-06-02T07:45:09.162Z,8.73
2018-06-02T07:47:37.349Z,7.93
2018-06-02T07:50:05.577Z,10.07
2018-06-02T07:52:33.729Z,10.70
2018-06-02T07:55:01.951Z,8.80
2018-06-02T07:57:30.163Z,8.37
2018-06-02T07:59:58.341Z,7.90
2018-06-02T08:02:26.516Z,10.03
2018-06-02T08:04:54.798Z,8.20
2018-06-02T08:07:22.965Z,9.83
2018-06-02T08:09:51.142Z,11.20
2018-06-02T08:12:19.342Z,7.67
2018-06-02T08:14:47.513Z,7.70
2018-06-02T08:17:15.689Z,7.67
2018-06-02T08:19:43.874Z,9.70
2018-06-02T08:22:12.058Z,7.67
2018-06-02T08:24:40.247Z,10.97
2018-06-02T08:27:08.447Z,8.37
2018-06-02T08:29:36.654Z,8.87
2018-06-02T08:32:04.833Z,8.20
2018-06-02T08:34:33.031Z,9.67
2018-06-02T08:37:01.264Z,9.47
2018-06-02T08:39:29.435Z,13.40
2018-06-02T08:41:57.698Z,10.50
2018-06-02T08:44:25.971Z,15.37
2018-06-02T08:46:54.157Z,8.73
2018-06-02T08:49:22.362Z,9.20
2018-06-02T08:51:50.547Z,9.07
2018-06-02T08:54:18.758Z,10.23
2018-06-02T08:56:46.936Z,8.63
2018-06-02T08:59:15.182Z,10.13
2018-06-02T09:01:43.357Z,8.43
2018-06-02T09:04:11.545Z,9.00
2018-06-02T09:06:39.722Z,9.30
2018-06-02T09:09:07.907Z,7.50
2018-06-02T09:11:36.110Z,7.90
2018-06-02T09:14:04.318Z,9.83
2018-06-02T09:16:32.499Z,10.83
2018-06-02T09:19:00.687Z,10.87
2018-06-02T09:21:28.875Z,11.67
2018-06-02T09:23:57.064Z,10.00
2018-06-02T09:26:25.261Z,8.40
2018-06-02T09:28:53.449Z,12.37
2018-06-02T09:31:21.646Z,9.33
2018-06-02T09:33:49.839Z,8.93
2018-06-02T09:36:18.091Z,10.57
2018-06-02T09:38:46.261Z,12.33
2018-06-02T09:41:14.450Z,7.90
2018-06-02T09:43:42.641Z,8.60
2018-06-02T09:46:10.846Z,8.20
2018-06-02T09:48:39.033Z,7.07
2018-06-02T09:51:07.270Z,10.50
2018-06-02T09:53:35.542Z,8.40
2018-06-02T09:56:03.751Z,7.17
2018-06-02T09:58:31.921Z,6.70
2018-06-02T10:01:00.230Z,8.07
2018-06-02T10:03:28.422Z,7.03
2018-06-02T10:05:56.608Z,8.90
2018-06-02T10:08:24.782Z,7.03
2018-06-02T10:10:53.026Z,12.80
2018-06-02T10:13:21.205Z,6.60
2018-06-02T10:15:49.394Z,10.07
2018-06-02T10:18:17.596Z,8.00
2018-06-02T10:20:45.769Z,15.60
2018-06-02T10:23:13.952Z,6.47
2018-06-02T10:25:42.142Z,8.43
2018-06-02T10:28:10.317Z,10.53
2018-06-02T10:30:38.495Z,8.60
2018-06-02T10:33:06.685Z,11.50
2018-06-02T10:35:34.923Z,6.77
2018-06-02T10:38:03.033Z,7.00
2018-06-02T10:40:31.221Z,7.70
2018-06-02T10:42:59.419Z,7.87
2018-06-02T10:45:27.610Z,10.30
2018-06-02T10:47:55.803Z,7.40
2018-06-02T10:50:23.990Z,12.87
2018-06-02T10:52:52.223Z,7.43
2018-06-02T10:55:20.410Z,9.30
2018-06-02T10:57:48.613Z,11.80
2018-06-02T11:00:16.791Z,9.40
2018-06-02T11:02:44.991Z,13.17
2018-06-02T11:05:13.243Z,7.40
2018-06-02T11:07:41.478Z,7.57
2018-06-02T11:10:09.678Z,8.23
2018-06-02T11:12:37.849Z,8.17
2018-06-02T11:15:06.038Z,9.20
2018-06-02T11:17:34.242Z,9.00
2018-06-02T11:20:02.433Z,6.93
2018-06-02T11:22:30.689Z,6.43
2018-06-02T11:24:58.887Z,6.40
2018-06-02T11:27:27.070Z,6.97
2018-06-02T11:29:55.266Z,6.97
2018-06-02T11:32:23.461Z,6.13
2018-06-02T11:34:51.634Z,9.60
2018-06-02T11:37:19.809Z,6.50
2018-06-02T11:39:48.007Z,6.40
2018-06-02T11:42:16.186Z,7.27
2018-06-02T11:44:44.370Z,7.30
2018-06-02T11:47:12.594Z,7.07
2018-06-02T11:49:40.761Z,9.23
2018-06-02T11:52:08.979Z,8.57
2018-06-02T11:54:37.170Z,6.40
2018-06-02T11:57:05.376Z,7.33
2018-06-02T11:59:33.558Z,7.57
2018-06-02T12:02:01.746Z,6.13
2018-06-02T12:04:29.930Z,6.37
2018-06-02T12:06:58.180Z,6.70
2018-06-02T12:09:26.341Z,9.73
2018-06-02T12:11:54.530Z,8.60
2018-06-02T12:14:22.709Z,6.13
2018-06-02T12:16:50.926Z,6.07
2018-06-02T12:19:19.094Z,8.03
2018-06-02T12:21:47.284Z,13.13
2018-06-02T12:24:15.470Z,8.00
2018-06-02T12:26:43.646Z,12.77
2018-06-02T12:29:11.841Z,7.60
2018-06-02T12:31:40.042Z,5.70
2018-06-02T12:34:08.214Z,6.00
2018-06-02T12:36:36.393Z,9.63
2018-06-02T12:39:05.665Z,8.07
2018-06-02T12:41:33.850Z,8.93
2018-06-02T12:44:02.031Z,5.60
2018-06-02T12:46:30.225Z,5.87
2018-06-02T12:48:58.422Z,7.77
2018-06-02T12:51:26.622Z,6.47
2018-06-02T12:53:54.818Z,6.37
2018-06-02T12:56:23.005Z,7.93
2018-06-02T12:58:51.186Z,18.70
2018-06-02T13:01:19.389Z,7.23
2018-06-02T13:03:47.566Z,6.40
2018-06-02T13:06:15.748Z,9.33
2018-06-02T13:08:43.955Z,7.43
2018-06-02T13:11:12.143Z,5.80
2018-06-02T13:13:40.338Z,6.20
2018-06-02T13:16:08.555Z,6.13
2018-06-02T13:18:36.723Z,6.50
2018-06-02T13:21:04.907Z,7.20
2018-06-02T13:23:33.114Z,7.27
2018-06-02T13:26:01.294Z,7.03
2018-06-02T13:28:29.489Z,7.17
2018-06-02T13:30:57.790Z,6.60
2018-06-02T13:33:26.018Z,6.60
2018-06-02T13:35:54.209Z,6.07
2018-06-02T13:38:22.406Z,6.63
2018-06-02T13:40:50.590Z,6.27
2018-06-02T13:43:18.782Z,6.93
2018-06-02T13:45:46.970Z,8.20
2018-06-02T13:48:15.178Z,10.10
2018-06-02T13:50:43.362Z,8.03
2018-06-02T13:53:11.561Z,5.73
2018-06-02T13:55:39.754Z,8.70
2018-06-02T13:58:07.967Z,6.17
2018-06-02T14:00:36.260Z,6.57
2018-06-02T14:03:04.451Z,6.70
2018-06-02T14:05:32.622Z,7.00
2018-06-02T14:08:00.858Z,6.93
2018-06-02T14:10:29.054Z,7.40
2018-06-02T14:12:57.238Z,6.70
2018-06-02T14:15:25.443Z,6.90
2018-06-02T14:17:53.625Z,7.57
2018-06-02T14:20:21.886Z,7.50
2018-06-02T14:22:50.102Z,8.83
2018-06-02T14:25:18.319Z,7.53
2018-06-02T14:27:46.507Z,7.30
2018-06-02T14:30:14.695Z,7.40
2018-06-02T14:32:42.879Z,7.40
2018-06-02T14:35:11.066Z,7.07
2018-06-02T14:37:39.311Z,11.73
2018-06-02T14:40:07.490Z,7.30
2018-06-02T14:42:35.692Z,10.27
2018-06-02T14:45:03.897Z,9.13
2018-06-02T14:47:32.093Z,8.63
2018-06-02T14:50:00.294Z,11.50
2018-06-02T14:52:28.486Z,7.63
2018-06-02T14:54:56.687Z,8.43
2018-06-02T14:57:24.850Z,7.93
2018-06-02T14:59:53.049Z,7.70
2018-06-02T15:02:21.236Z,8.27
2018-06-02T15:04:49.437Z,10.83
2018-06-02T15:07:17.643Z,7.00
2018-06-02T15:09:45.853Z,7.70
2018-06-02T15:12:14.045Z,8.83
2018-06-02T15:14:42.254Z,6.80
2018-06-02T15:17:10.426Z,9.10
2018-06-02T15:19:38.621Z,10.47
2018-06-02T15:22:06.818Z,11.23
2018-06-02T15:24:35.015Z,10.70
2018-06-02T15:27:03.250Z,10.63
2018-06-02T15:29:31.469Z,6.53
2018-06-02T15:31:59.695Z,7.60
2018-06-02T15:34:27.906Z,7.13
2018-06-02T15:36:56.248Z,9.97
2018-06-02T15:39:24.478Z,10.73
2018-06-02T15:41:52.737Z,9.93
2018-06-02T15:44:21.011Z,9.73
2018-06-02T15:46:49.241Z,9.23
2018-06-02T15:49:17.501Z,7.73
2018-06-02T15:51:45.811Z,8.60
2018-06-02T15:54:14.161Z,11.40
2018-06-02T15:56:42.382Z,7.43
2018-06-02T15:59:10.566Z,10.70
2018-06-02T16:01:38.914Z,7.90
2018-06-02T16:04:07.158Z,7.87
2018-06-02T16:06:35.449Z,7.70
2018-06-02T16:09:04.374Z,7.90
2018-06-02T16:11:32.611Z,8.30
2018-06-02T16:14:00.832Z,8.27
2018-06-02T16:16:29.045Z,7.90
2018-06-02T16:18:57.474Z,10.27
2018-06-02T16:21:26.738Z,9.57
2018-06-02T16:23:55.231Z,7.53
2018-06-02T16:26:23.530Z,7.80
2018-06-02T16:28:51.915Z,13.13
2018-06-02T16:31:58.970Z,6.90
2018-06-02T16:34:27.172Z,7.70
2018-06-02T16:36:55.450Z,10.30
2018-06-02T16:39:23.714Z,10.60
2018-06-02T16:41:51.925Z,9.10
2018-06-02T16:44:20.114Z,8.23
2018-06-02T16:46:48.406Z,10.47
2018-06-02T16:49:16.571Z,9.57
2018-06-02T16:51:44.755Z,9.70
2018-06-02T16:54:12.937Z,13.43
2018-06-02T16:56:41.158Z,9.00
2018-06-02T16:59:09.325Z,9.07
2018-06-02T17:01:37.521Z,14.90
2018-06-02T17:04:05.758Z,17.90
2018-06-02T17:06:33.934Z,14.00
2018-06-02T17:09:02.122Z,13.13
2018-06-02T17:11:30.326Z,10.23
2018-06-02T17:13:58.530Z,12.60
2018-06-02T17:16:26.727Z,9.97
2018-06-02T17:18:54.926Z,16.30
2018-06-02T17:21:23.153Z,8.73
2018-06-02T17:23:51.342Z,9.57
2018-06-02T17:26:19.582Z,15.67
2018-06-02T17:28:47.769Z,10.10
2018-06-02T17:31:16.014Z,8.80
2018-06-02T17:33:44.145Z,13.30
2018-06-02T17:36:12.322Z,9.80
2018-06-02T17:38:40.734Z,14.07
2018-06-02T17:41:08.930Z,13.37
2018-06-02T17:43:37.142Z,9.17
2018-06-02T17:46:05.393Z,11.10
2018-06-02T17:48:33.594Z,10.80
2018-06-02T17:51:01.895Z,11.27
2018-06-02T17:53:30.091Z,9.23
2018-06-02T17:55:58.290Z,11.30
2018-06-02T17:58:26.475Z,9.50
2018-06-02T18:00:54.646Z,9.93
2018-06-02T18:03:22.867Z,9.30
2018-06-02T18:05:51.074Z,11.40
2018-06-02T18:08:19.243Z,9.10
2018-06-02T18:10:47.470Z,9.57
2018-06-02T18:13:15.736Z,15.00
2018-06-02T18:15:44.008Z,18.03
2018-06-02T18:18:12.240Z,11.17
2018-06-02T18:20:40.508Z,16.03
2018-06-02T18:23:08.727Z,9.77
2018-06-02T18:25:36.987Z,18.83
2018-06-02T18:28:05.266Z,14.53
2018-06-02T18:30:33.550Z,19.03
2018-06-02T18:33:01.759Z,11.90
2018-06-02T18:35:30.045Z,12.77
2018-06-02T18:37:58.309Z,9.77
2018-06-02T18:40:26.543Z,12.83
2018-06-02T18:42:55.825Z,11.33
2018-06-02T18:45:24.119Z,11.90
2018-06-02T18:47:52.405Z,9.47
2018-06-02T18:50:20.581Z,10.43
2018-06-02T18:52:48.770Z,10.40
2018-06-02T18:55:17.018Z,12.80
2018-06-02T18:57:45.245Z,18.70
2018-06-02T19:00:13.433Z,11.07
2018-06-02T19:02:41.834Z,13.33
2018-06-02T19:05:10.134Z,25.27
2018-06-02T19:07:38.398Z,20.03
2018-06-02T19:10:06.731Z,17.60
2018-06-02T19:12:34.990Z,15.80
2018-06-02T19:15:03.299Z,16.50
2018-06-02T19:17:31.567Z,17.53
2018-06-02T19:19:59.850Z,14.43
2018-06-02T19:22:28.137Z,17.73
2018-06-02T19:24:56.322Z,16.33
2018-06-02T19:27:24.487Z,14.13
2018-06-02T19:29:52.735Z,13.40
2018-06-02T19:32:21.002Z,14.30
2018-06-02T19:34:49.222Z,20.73
2018-06-02T19:37:17.454Z,13.33
2018-06-02T19:39:45.651Z,16.00
2018-06-02T19:42:13.939Z,14.10
2018-06-02T19:44:42.247Z,17.00
2018-06-02T19:47:10.535Z,23.00
2018-06-02T19:49:38.818Z,21.43
2018-06-02T19:52:07.086Z,25.30
2018-06-02T19:54:35.390Z,13.93
2018-06-02T19:57:03.663Z,14.87
2018-06-02T19:59:31.850Z,14.43
2018-06-02T20:02:00.153Z,15.50
2018-06-02T20:04:28.462Z,26.43
2018-06-02T20:06:56.638Z,15.53
2018-06-02T20:09:24.911Z,14.83
2018-06-02T20:11:53.118Z,20.27
2018-06-02T20:14:21.378Z,15.67
2018-06-02T20:16:49.714Z,15.70
2018-06-02T20:19:17.957Z,16.70
2018-06-02T20:21:46.156Z,17.77
2018-06-02T20:24:14.438Z,17.27
2018-06-02T20:26:42.718Z,24.03
2018-06-02T20:29:10.967Z,17.43
2018-06-02T20:31:39.254Z,15.40
2018-06-02T20:34:07.508Z,17.03
2018-06-02T20:36:35.774Z,14.33
2018-06-02T20:39:04.390Z,15.60
2018-06-02T20:41:32.663Z,15.93
2018-06-02T20:44:00.992Z,13.67
2018-06-02T20:46:29.271Z,17.80
2018-06-02T20:48:57.450Z,16.73
2018-06-02T20:51:25.717Z,28.30
2018-06-02T20:53:53.915Z,16.73
2018-06-02T20:56:22.194Z,16.57
2018-06-02T20:58:50.470Z,19.57
2018-06-02T21:01:18.670Z,14.70
2018-06-02T21:03:46.991Z,13.10
2018-06-02T21:06:15.267Z,21.33
2018-06-02T21:08:43.569Z,17.17
2018-06-02T21:11:11.870Z,15.40
2018-06-02T21:13:40.139Z,17.43
2018-06-02T21:16:08.410Z,21.50
2018-06-02T21:18:36.734Z,16.30
2018-06-02T21:21:04.998Z,16.70
2018-06-02T21:23:33.302Z,13.40
2018-06-02T21:26:01.554Z,21.67
2018-06-02T21:28:30.016Z,15.47
2018-06-02T21:30:58.248Z,18.33
2018-06-02T21:33:26.604Z,17.97
2018-06-02T21:35:54.874Z,17.30
2018-06-02T21:38:23.154Z,18.50
2018-06-02T21:40:51.386Z,13.90
2018-06-02T21:43:19.573Z,16.70
2018-06-02T21:45:47.962Z,17.87
2018-06-02T21:48:16.149Z,24.87
2018-06-02T21:50:44.374Z,20.47
2018-06-02T21:53:12.722Z,13.17
2018-06-02T21:55:40.980Z,25.50
2018-06-02T21:58:09.240Z,17.73
2018-06-02T22:00:37.522Z,17.23
2018-06-02T22:03:05.903Z,14.10
2018-06-02T22:05:34.174Z,22.13
2018-06-02T22:08:02.498Z,18.10
2018-06-02T22:10:30.750Z,16.20
2018-06-02T22:12:59.221Z,19.80
2018-06-02T22:15:27.510Z,23.93
2018-06-02T22:17:55.859Z,13.53
2018-06-02T22:20:24.054Z,15.40
2018-06-02T22:22:52.377Z,15.80
2018-06-02T22:25:20.577Z,19.30
2018-06-02T22:27:48.787Z,16.07
2018-06-02T22:30:17.091Z,19.67
2018-06-02T22:32:45.347Z,15.60
2018-06-02T22:35:13.549Z,15.80
2018-06-02T22:37:41.838Z,20.53
2018-06-02T22:40:10.117Z,17.40
2018-06-02T22:42:38.426Z,19.57
2018-06-02T22:45:06.730Z,17.23
2018-06-02T22:47:35.349Z,16.53
2018-06-02T22:50:03.617Z,13.20
2018-06-02T22:52:31.906Z,18.00
2018-06-02T22:55:00.194Z,15.70
2018-06-02T22:57:28.496Z,12.90
2018-06-02T22:59:56.900Z,19.10
2018-06-02T23:02:25.158Z,15.57
2018-06-02T23:04:53.483Z,26.03
2018-06-02T23:07:21.784Z,21.87
2018-06-02T23:09:50.071Z,14.77
2018-06-02T23:12:18.273Z,16.20
2018-06-02T23:14:46.482Z,15.20
2018-06-02T23:17:14.750Z,17.07
2018-06-02T23:19:42.936Z,19.57
2018-06-02T23:22:48.709Z,18.43
2018-06-02T23:25:17.003Z,15.63
2018-06-02T23:27:45.390Z,18.17
2018-06-02T23:30:13.590Z,14.00
2018-06-02T23:32:41.867Z,21.60
2018-06-02T23:35:10.162Z,16.53
2018-06-02T23:37:38.526Z,13.33
2018-06-02T23:40:06.766Z,18.20
2018-06-02T23:42:35.054Z,19.33
2018-06-02T23:45:03.419Z,15.13
2018-06-02T23:47:31.610Z,19.77
2018-06-02T23:49:59.941Z,19.37
2018-06-02T23:52:28.218Z,25.47
2018-06-02T23:54:56.489Z,18.40
2018-06-02T23:57:24.789Z,16.67
2018-06-02T23:59:53.078Z,14.67
